Hydeville, Vermont
Current Conditions -  °F | °C
As of 12:35 AM on Wednesday 22 Oct 2014 (Local Time) from KRUT Reporting Station
Overcast Overcast  
Wind Chill: 46°   Ceiling: 1400
Heat Index: 46°   Visibility: 10mi
Dew Point: 45°   Wind: 0mph
Humidity: 93%   Direction: NA
Pressure: 30.05"   Gusts: NA
Location:  43.61°N, 73.23°W
Report Text: KRUT 220435Z 00000KT 10SM OVC014 08/07 A3005 RMK AO1
Loading
Personal Weather Stations






























Interactive Weather Map
Tropical Storm Tracking
New forecast layout! Learn more

10-Day Weather Forecast

Advertisements
Track Severe Weather on mobile